createdAt,value
2023-01-10T00:00:55.355Z,4.20
2023-01-10T00:03:52.142Z,4.20
2023-01-10T00:06:48.904Z,4.20
2023-01-10T00:09:45.667Z,4.30
2023-01-10T00:13:01.020Z,4.20
2023-01-10T00:15:57.881Z,4.20
2023-01-10T00:18:54.683Z,4.20
2023-01-10T00:21:51.433Z,4.10
2023-01-10T00:24:48.230Z,4.10
2023-01-10T00:27:45.952Z,4.10
2023-01-10T00:30:42.717Z,4.10
2023-01-10T00:33:39.578Z,4.00
2023-01-10T00:36:36.393Z,4.00
2023-01-10T00:39:33.138Z,4.10
2023-01-10T00:42:48.273Z,4.10
2023-01-10T00:45:48.391Z,4.10
2023-01-10T00:48:45.226Z,4.10
2023-01-10T00:51:42.849Z,4.10
2023-01-10T00:54:39.591Z,4.00
2023-01-10T00:57:36.393Z,4.00
2023-01-10T01:00:33.152Z,4.10
2023-01-10T01:03:29.875Z,4.10
2023-01-10T01:06:26.812Z,4.10
2023-01-10T01:09:23.547Z,4.10
2023-01-10T01:12:20.300Z,4.10
2023-01-10T01:15:17.110Z,4.10
2023-01-10T01:18:15.941Z,4.20
2023-01-10T01:21:12.703Z,4.20
2023-01-10T01:24:10.680Z,4.20
2023-01-10T01:27:07.429Z,4.10
2023-01-10T01:30:06.117Z,4.20
2023-01-10T01:33:02.849Z,4.10
2023-01-10T01:35:59.877Z,4.10
2023-01-10T01:38:56.681Z,4.20
2023-01-10T01:42:00.238Z,4.20
2023-01-10T01:45:12.483Z,4.10
2023-01-10T01:48:21.988Z,4.10
2023-01-10T01:51:22.091Z,4.20
2023-01-10T01:54:19.267Z,4.20
2023-01-10T01:57:20.998Z,4.20
2023-01-10T02:00:17.977Z,4.20
2023-01-10T02:03:15.173Z,4.10
2023-01-10T02:06:12.046Z,4.20
2023-01-10T02:09:21.086Z,4.20
2023-01-10T02:12:19.014Z,4.10
2023-01-10T02:15:16.301Z,4.10
2023-01-10T02:18:13.593Z,4.10
2023-01-10T02:21:31.269Z,4.10
2023-01-10T02:24:39.234Z,4.10
2023-01-10T02:28:05.998Z,4.00
2023-01-10T02:31:34.609Z,4.10
2023-01-10T02:34:38.442Z,4.10
2023-01-10T02:37:46.503Z,4.00
2023-01-10T02:40:59.843Z,4.10
2023-01-10T02:44:02.943Z,4.00
2023-01-10T02:47:02.545Z,4.00
2023-01-10T02:50:19.223Z,4.00
2023-01-10T02:53:23.185Z,4.00
2023-01-10T02:56:50.969Z,4.00
2023-01-10T03:00:24.619Z,3.90
2023-01-10T03:03:51.157Z,3.90
2023-01-10T03:07:11.463Z,3.90
2023-01-10T03:10:19.088Z,3.80
2023-01-10T03:13:28.639Z,3.80
2023-01-10T03:16:29.237Z,3.90
2023-01-10T03:19:31.292Z,3.90
2023-01-10T03:22:30.589Z,3.90
2023-01-10T03:25:32.623Z,3.90
2023-01-10T03:28:34.071Z,3.90
2023-01-10T03:31:35.925Z,3.90
2023-01-10T03:34:33.259Z,3.90
2023-01-10T03:38:06.361Z,3.90
2023-01-10T03:41:13.153Z,3.80
2023-01-10T03:44:31.617Z,3.80
2023-01-10T03:47:46.508Z,3.90
2023-01-10T03:50:43.617Z,3.90
2023-01-10T03:53:40.403Z,3.80
2023-01-10T03:56:44.878Z,3.90
2023-01-10T03:59:41.637Z,3.90
2023-01-10T04:02:39.061Z,3.90
2023-01-10T04:05:35.975Z,3.90
2023-01-10T04:08:32.783Z,3.90
2023-01-10T04:11:29.646Z,3.90
2023-01-10T04:14:27.646Z,3.90
2023-01-10T04:17:24.387Z,3.90
2023-01-10T04:20:21.275Z,4.00
2023-01-10T04:23:18.074Z,4.00
2023-01-10T04:26:14.837Z,4.00
2023-01-10T04:29:11.594Z,4.00
2023-01-10T04:32:08.355Z,3.90
2023-01-10T04:35:05.351Z,3.90
2023-01-10T04:38:02.117Z,3.90
2023-01-10T04:40:58.946Z,3.90
2023-01-10T04:43:55.712Z,3.90
2023-01-10T04:46:52.462Z,4.00
2023-01-10T04:49:49.218Z,4.00
2023-01-10T04:52:45.951Z,3.90
2023-01-10T04:55:42.971Z,4.00
2023-01-10T04:58:39.724Z,3.90
2023-01-10T05:01:39.110Z,3.90
2023-01-10T05:04:36.009Z,4.00
2023-01-10T05:07:32.799Z,4.00
2023-01-10T05:10:29.645Z,3.90
2023-01-10T05:13:26.519Z,4.00
2023-01-10T05:16:24.082Z,4.00
2023-01-10T05:19:20.856Z,4.00
2023-01-10T05:22:18.012Z,3.90
2023-01-10T05:25:14.989Z,4.00
2023-01-10T05:28:11.747Z,3.90
2023-01-10T05:31:10.206Z,4.00
2023-01-10T05:34:07.086Z,3.90
2023-01-10T05:37:03.847Z,3.90
2023-01-10T05:40:00.604Z,3.90
2023-01-10T05:42:57.360Z,3.90
2023-01-10T05:45:54.240Z,3.90
2023-01-10T05:48:52.826Z,3.90
2023-01-10T05:51:49.601Z,3.90
2023-01-10T05:54:46.380Z,3.90
2023-01-10T05:57:43.145Z,4.00
2023-01-10T06:00:40.342Z,4.00
2023-01-10T06:03:37.498Z,3.90
2023-01-10T06:06:34.431Z,3.90
2023-01-10T06:09:31.198Z,4.00
2023-01-10T06:12:27.974Z,3.90
2023-01-10T06:15:24.725Z,3.80
2023-01-10T06:18:21.494Z,3.80
2023-01-10T06:21:18.443Z,3.80
2023-01-10T06:24:15.225Z,3.80
2023-01-10T06:27:12.003Z,3.70
2023-01-10T06:30:10.394Z,3.70
2023-01-10T06:33:08.768Z,3.70
2023-01-10T06:36:05.767Z,3.70
2023-01-10T06:39:02.514Z,3.60
2023-01-10T06:41:59.277Z,3.60
2023-01-10T06:44:56.013Z,3.70
2023-01-10T06:47:52.795Z,3.70
2023-01-10T06:50:49.972Z,3.70
2023-01-10T06:53:46.722Z,3.70
2023-01-10T06:56:43.496Z,3.60
2023-01-10T06:59:40.236Z,3.70
2023-01-10T07:02:37.336Z,3.70
2023-01-10T07:05:34.090Z,3.70
2023-01-10T07:08:30.844Z,3.70
2023-01-10T07:11:27.608Z,3.70
2023-01-10T07:14:24.595Z,3.70
2023-01-10T07:17:21.439Z,3.70
2023-01-10T07:20:18.955Z,3.80
2023-01-10T07:23:15.754Z,3.70
2023-01-10T07:26:17.511Z,3.70
2023-01-10T07:29:14.286Z,3.70
2023-01-10T07:32:11.048Z,3.70
2023-01-10T07:35:08.107Z,3.70
2023-01-10T07:38:04.889Z,3.70
2023-01-10T07:41:03.348Z,3.70
2023-01-10T07:44:00.158Z,3.70
2023-01-10T07:46:56.918Z,3.70
2023-01-10T07:49:53.665Z,3.70
2023-01-10T07:52:50.427Z,3.70
2023-01-10T07:55:47.251Z,3.70
2023-01-10T07:58:46.247Z,3.80
2023-01-10T08:01:43.121Z,3.80
2023-01-10T08:04:39.878Z,3.80
2023-01-10T08:07:36.983Z,3.80
2023-01-10T08:10:35.223Z,3.80
2023-01-10T08:13:32.376Z,3.80
2023-01-10T08:16:29.199Z,3.80
2023-01-10T08:19:25.962Z,3.80
2023-01-10T08:22:22.720Z,3.90
2023-01-10T08:25:19.480Z,3.90
2023-01-10T08:28:16.262Z,3.90
2023-01-10T08:31:13.236Z,3.80
2023-01-10T08:34:10.018Z,3.80
2023-01-10T08:37:06.790Z,3.80
2023-01-10T08:40:03.825Z,3.90
2023-01-10T08:43:02.326Z,3.90
2023-01-10T08:45:59.097Z,3.90
2023-01-10T08:48:56.093Z,3.80
2023-01-10T08:51:52.847Z,3.90
2023-01-10T08:54:50.254Z,3.90
2023-01-10T08:57:47.002Z,3.90
2023-01-10T09:00:45.055Z,4.00
2023-01-10T09:03:41.877Z,4.10
2023-01-10T09:06:38.655Z,4.10
2023-01-10T09:09:36.705Z,4.20
2023-01-10T09:12:52.346Z,4.20
2023-01-10T09:15:52.084Z,4.10
2023-01-10T09:18:48.846Z,4.10
2023-01-10T09:21:45.603Z,4.10
2023-01-10T09:24:43.975Z,4.30
2023-01-10T09:27:40.726Z,4.30
2023-01-10T09:30:37.490Z,4.30
2023-01-10T09:33:45.626Z,4.40
2023-01-10T09:36:43.309Z,4.50
2023-01-10T09:39:40.066Z,4.70
2023-01-10T09:42:47.808Z,4.80
2023-01-10T09:46:05.552Z,4.90
2023-01-10T09:49:24.805Z,5.00
2023-01-10T09:52:50.830Z,5.00
2023-01-10T09:55:53.131Z,5.00
2023-01-10T09:58:50.089Z,4.90
2023-01-10T10:01:48.754Z,5.00
2023-01-10T10:04:56.642Z,5.10
2023-01-10T10:08:02.592Z,5.20
2023-01-10T10:11:31.213Z,5.20
2023-01-10T10:14:33.724Z,5.10
2023-01-10T10:18:09.087Z,5.00
2023-01-10T10:21:31.094Z,5.00
2023-01-10T10:24:37.454Z,4.90
2023-01-10T10:27:50.705Z,4.90
2023-01-10T10:30:50.071Z,4.90
2023-01-10T10:34:13.391Z,4.90
2023-01-10T10:37:17.596Z,4.90
2023-01-10T10:40:14.497Z,4.80
2023-01-10T10:43:18.352Z,4.70
2023-01-10T10:46:19.087Z,4.80
2023-01-10T10:49:24.560Z,4.80
2023-01-10T10:52:26.946Z,4.70
2023-01-10T10:55:31.039Z,4.80
2023-01-10T10:58:30.809Z,4.70
2023-01-10T11:01:27.841Z,4.70
2023-01-10T11:04:24.705Z,4.60
2023-01-10T11:07:22.424Z,4.70
2023-01-10T11:10:36.978Z,4.60
2023-01-10T11:13:33.630Z,4.60
2023-01-10T11:16:39.938Z,4.70
2023-01-10T11:19:36.730Z,4.70
2023-01-10T11:22:40.011Z,4.70
2023-01-10T11:25:36.858Z,4.60
2023-01-10T11:28:34.268Z,4.60
2023-01-10T11:31:32.267Z,4.50
2023-01-10T11:34:31.767Z,4.50
2023-01-10T11:37:34.025Z,4.50
2023-01-10T11:40:32.647Z,4.50
2023-01-10T11:43:34.462Z,4.60
2023-01-10T11:46:31.256Z,4.50
2023-01-10T11:49:37.900Z,4.60
2023-01-10T11:52:34.710Z,4.60
2023-01-10T11:55:33.410Z,4.50
2023-01-10T11:58:35.049Z,4.50
2023-01-10T12:01:45.809Z,4.60
2023-01-10T12:04:46.952Z,4.60
2023-01-10T12:08:06.230Z,4.60
2023-01-10T12:11:21.936Z,4.60
2023-01-10T12:14:20.381Z,4.70
2023-01-10T12:17:27.640Z,4.60
2023-01-10T12:20:25.787Z,4.70
2023-01-10T12:23:24.196Z,4.80
2023-01-10T12:26:21.572Z,4.80
2023-01-10T12:29:25.655Z,4.80
2023-01-10T12:32:30.701Z,4.90
2023-01-10T12:35:46.257Z,4.70
2023-01-10T12:39:06.185Z,4.70
2023-01-10T12:42:32.408Z,4.60
2023-01-10T12:45:35.093Z,4.70
2023-01-10T12:48:40.696Z,4.70
2023-01-10T12:51:38.225Z,4.80
2023-01-10T12:54:34.987Z,4.70
2023-01-10T12:57:36.909Z,4.80
2023-01-10T13:00:47.771Z,4.70
2023-01-10T13:03:49.301Z,4.70
2023-01-10T13:06:46.278Z,4.70
2023-01-10T13:09:43.807Z,4.70
2023-01-10T13:12:43.014Z,4.70
2023-01-10T13:15:48.147Z,4.80
2023-01-10T13:19:05.602Z,4.80
2023-01-10T13:22:22.811Z,4.80
2023-01-10T13:25:25.600Z,4.70
2023-01-10T13:28:31.447Z,4.80
2023-01-10T13:31:32.939Z,4.80
2023-01-10T13:34:35.422Z,4.90
2023-01-10T13:37:36.999Z,4.80
2023-01-10T13:40:34.054Z,4.80
2023-01-10T13:43:34.574Z,4.70
2023-01-10T13:46:31.505Z,4.80
2023-01-10T13:49:42.866Z,4.80
2023-01-10T13:52:39.711Z,4.80
2023-01-10T13:55:39.328Z,4.80
2023-01-10T13:58:59.319Z,4.90
2023-01-10T14:02:17.193Z,4.70
2023-01-10T14:05:18.422Z,4.60
2023-01-10T14:08:16.053Z,4.60
2023-01-10T14:11:13.374Z,4.60
2023-01-10T14:14:34.258Z,4.60
2023-01-10T14:17:32.910Z,4.60
2023-01-10T14:20:31.648Z,4.70
2023-01-10T14:23:32.159Z,4.70
2023-01-10T14:26:31.723Z,4.60
2023-01-10T14:29:31.702Z,4.60
2023-01-10T14:32:38.212Z,4.50
2023-01-10T14:35:42.525Z,4.50
2023-01-10T14:38:39.672Z,4.60
2023-01-10T14:41:42.347Z,4.60
2023-01-10T14:44:45.850Z,4.60
2023-01-10T14:47:42.655Z,4.70
2023-01-10T14:50:39.505Z,4.70
2023-01-10T14:53:36.270Z,4.50
2023-01-10T14:56:44.780Z,4.60
2023-01-10T14:59:41.548Z,4.60
2023-01-10T15:02:43.599Z,4.50
2023-01-10T15:05:47.633Z,4.50
2023-01-10T15:08:44.802Z,4.60
2023-01-10T15:11:41.672Z,4.60
2023-01-10T15:14:38.491Z,4.60
2023-01-10T15:17:36.919Z,4.50
2023-01-10T15:20:33.894Z,4.50
2023-01-10T15:23:39.111Z,4.50
2023-01-10T15:26:35.881Z,4.60
2023-01-10T15:29:33.738Z,4.50
2023-01-10T15:32:34.512Z,4.50
2023-01-10T15:35:36.621Z,4.40
2023-01-10T15:38:37.307Z,4.50
2023-01-10T15:41:34.778Z,4.50
2023-01-10T15:44:35.801Z,4.40
2023-01-10T15:47:52.917Z,4.30
2023-01-10T15:51:11.028Z,4.20
2023-01-10T15:54:19.796Z,4.10
2023-01-10T15:57:20.827Z,4.20
2023-01-10T16:00:18.952Z,4.10
2023-01-10T16:03:34.222Z,4.10
2023-01-10T16:06:34.003Z,4.00
2023-01-10T16:09:31.289Z,4.00
2023-01-10T16:12:53.400Z,4.00
2023-01-10T16:15:50.598Z,3.90
2023-01-10T16:18:47.400Z,3.90
2023-01-10T16:21:46.545Z,3.90
2023-01-10T16:24:44.247Z,3.90
2023-01-10T16:27:41.269Z,3.90
2023-01-10T16:30:42.757Z,3.90
2023-01-10T16:33:41.063Z,3.80
2023-01-10T16:36:38.047Z,3.60
2023-01-10T16:39:35.011Z,3.50
2023-01-10T16:42:50.225Z,3.50
2023-01-10T16:45:52.256Z,3.60
2023-01-10T16:48:50.097Z,3.60
2023-01-10T16:51:46.848Z,3.60
2023-01-10T16:54:43.612Z,3.60
2023-01-10T16:57:44.252Z,3.60
2023-01-10T17:00:42.484Z,3.60
2023-01-10T17:03:39.306Z,3.50
2023-01-10T17:06:36.103Z,3.40
2023-01-10T17:09:32.881Z,3.40
2023-01-10T17:12:32.944Z,3.40
2023-01-10T17:15:29.747Z,3.30
2023-01-10T17:18:28.604Z,3.30
2023-01-10T17:21:25.424Z,3.30
2023-01-10T17:24:22.792Z,3.30
2023-01-10T17:27:19.543Z,3.30
2023-01-10T17:30:16.596Z,3.30
2023-01-10T17:33:13.599Z,3.30
2023-01-10T17:36:10.748Z,3.20
2023-01-10T17:39:07.569Z,3.20
2023-01-10T17:42:06.051Z,3.30
2023-01-10T17:45:03.711Z,3.40
2023-01-10T17:48:00.840Z,3.50
2023-01-10T17:50:59.671Z,3.40
2023-01-10T17:53:56.651Z,3.40
2023-01-10T17:56:53.546Z,3.40
2023-01-10T17:59:50.332Z,3.30
2023-01-10T18:02:47.239Z,3.30
2023-01-10T18:05:55.563Z,3.30
2023-01-10T18:08:53.519Z,3.30
2023-01-10T18:11:50.341Z,3.30
2023-01-10T18:14:47.122Z,3.30
2023-01-10T18:17:45.200Z,3.30
2023-01-10T18:20:44.048Z,3.20
2023-01-10T18:23:40.930Z,3.20
2023-01-10T18:26:37.703Z,3.20
2023-01-10T18:29:34.562Z,3.10
2023-01-10T18:32:32.438Z,3.10
2023-01-10T18:35:30.431Z,3.20
2023-01-10T18:38:30.889Z,3.20
2023-01-10T18:41:27.657Z,3.10
2023-01-10T18:44:24.524Z,3.10
2023-01-10T18:47:21.379Z,3.10
2023-01-10T18:50:18.246Z,3.20
2023-01-10T18:53:15.006Z,3.20
2023-01-10T18:56:11.957Z,3.20
2023-01-10T18:59:08.731Z,3.10
2023-01-10T19:02:06.243Z,3.10
2023-01-10T19:05:04.723Z,3.10
2023-01-10T19:08:01.740Z,3.20
2023-01-10T19:11:12.414Z,3.10
2023-01-10T19:14:09.466Z,3.10
2023-01-10T19:17:06.296Z,3.10
2023-01-10T19:20:03.190Z,3.10
2023-01-10T19:22:59.949Z,3.10
2023-01-10T19:25:57.594Z,3.10
2023-01-10T19:28:54.415Z,3.10
2023-01-10T19:31:52.558Z,3.20
2023-01-10T19:34:50.100Z,3.10
2023-01-10T19:37:49.377Z,3.10
2023-01-10T19:40:52.379Z,3.20
2023-01-10T19:43:53.680Z,3.20
2023-01-10T19:46:50.448Z,3.10
2023-01-10T19:49:47.219Z,3.10
2023-01-10T19:52:46.338Z,3.10
2023-01-10T19:55:43.085Z,3.10
2023-01-10T19:58:39.857Z,3.10
2023-01-10T20:01:36.667Z,3.10
2023-01-10T20:04:33.459Z,3.10
2023-01-10T20:07:30.222Z,3.10
2023-01-10T20:10:26.970Z,3.20
2023-01-10T20:13:24.030Z,3.20
2023-01-10T20:16:22.511Z,3.20
2023-01-10T20:19:21.390Z,3.10
2023-01-10T20:22:18.151Z,3.10
2023-01-10T20:25:14.952Z,3.10
2023-01-10T20:28:11.736Z,3.10
2023-01-10T20:31:10.156Z,3.20
2023-01-10T20:34:06.936Z,3.10
2023-01-10T20:37:04.123Z,3.20
2023-01-10T20:40:01.498Z,3.20
2023-01-10T20:42:58.638Z,3.20
2023-01-10T20:45:55.553Z,3.20
2023-01-10T20:48:53.534Z,3.10
2023-01-10T20:51:50.368Z,3.20
2023-01-10T20:54:47.154Z,3.10
2023-01-10T20:57:43.925Z,3.10
2023-01-10T21:00:40.694Z,3.10
2023-01-10T21:03:37.463Z,3.10
2023-01-10T21:06:35.348Z,3.10
2023-01-10T21:09:32.206Z,3.10
2023-01-10T21:12:30.821Z,3.10
2023-01-10T21:15:27.577Z,3.10
2023-01-10T21:18:26.860Z,3.20
2023-01-10T21:21:23.695Z,3.10
2023-01-10T21:24:22.901Z,3.20
2023-01-10T21:27:19.741Z,3.10
2023-01-10T21:30:19.008Z,3.10
2023-01-10T21:33:15.825Z,3.10
2023-01-10T21:36:13.734Z,3.20
2023-01-10T21:39:10.574Z,3.20
2023-01-10T21:42:27.261Z,3.20
2023-01-10T21:45:23.993Z,3.10
2023-01-10T21:48:20.758Z,3.10
2023-01-10T21:51:17.503Z,3.10
2023-01-10T21:54:14.323Z,3.10
2023-01-10T21:57:11.073Z,3.00
2023-01-10T22:00:08.552Z,3.00
2023-01-10T22:03:05.324Z,3.00
2023-01-10T22:06:02.106Z,3.00
2023-01-10T22:08:58.867Z,3.00
2023-01-10T22:11:55.731Z,3.00
2023-01-10T22:14:52.543Z,2.90
2023-01-10T22:17:49.318Z,2.90
2023-01-10T22:20:46.065Z,2.90
2023-01-10T22:23:43.576Z,2.90
2023-01-10T22:26:40.344Z,2.90
2023-01-10T22:29:37.117Z,2.80
2023-01-10T22:32:33.903Z,2.90
2023-01-10T22:35:30.660Z,2.80
2023-01-10T22:38:29.108Z,2.80
2023-01-10T22:41:26.784Z,2.70
2023-01-10T22:44:26.497Z,2.80
2023-01-10T22:47:23.317Z,2.80
2023-01-10T22:50:20.076Z,2.80
2023-01-10T22:53:17.031Z,2.90
2023-01-10T22:56:13.807Z,2.90
2023-01-10T22:59:11.374Z,2.90
2023-01-10T23:02:08.142Z,2.90
2023-01-10T23:05:05.175Z,2.90
2023-01-10T23:08:01.979Z,2.90
2023-01-10T23:10:58.892Z,2.90
2023-01-10T23:13:55.683Z,3.00
2023-01-10T23:16:52.457Z,2.90
2023-01-10T23:19:49.234Z,2.90
2023-01-10T23:22:45.990Z,2.90
2023-01-10T23:25:43.104Z,2.90
2023-01-10T23:28:46.861Z,3.00
2023-01-10T23:31:43.689Z,2.90
2023-01-10T23:34:40.471Z,2.90
2023-01-10T23:37:37.246Z,2.90
2023-01-10T23:40:33.990Z,2.90
2023-01-10T23:43:30.797Z,2.80
2023-01-10T23:46:27.556Z,2.80
2023-01-10T23:49:24.341Z,2.80
2023-01-10T23:52:21.097Z,2.80
2023-01-10T23:55:17.850Z,2.80
2023-01-10T23:58:15.604Z,2.80
